Time;durP1;ratioP1;P1;durP2;ratioP2;P2;SDS_P1;SDS_P2;PMS_P1;PMS_P2;Temp;Humidity;BMP_temperature;BMP_pressure;BME280_temperature;BME280_humidity;BME280_pressure;Samples;Min_cycle;Max_cycle;Signal;HPM_P1;HPM_P2
2022/06/09 00:00:32;;;;;;;9.18;6.80;;;;;;;;;;6254255;28;20086;-71
2022/06/09 00:03:43;;;;;;;8.20;6.13;;;;;;;;;;6254993;28;20049;-72
2022/06/09 00:06:47;;;;;;;10.93;6.95;;;;;;;;;;6254058;28;20052;-69
2022/06/09 00:09:52;;;;;;;13.85;6.75;;;;;;;;;;6255776;28;20068;-70
2022/06/09 00:12:53;;;;;;;10.73;6.35;;;;;;;;;;6252826;28;20058;-70
2022/06/09 00:15:55;;;;;;;9.88;6.70;;;;;;;;;;6251535;28;20053;-71
2022/06/09 00:18:58;;;;;;;11.85;6.93;;;;;;;;;;6253917;28;20049;-70
2022/06/09 00:22:00;;;;;;;10.75;7.10;;;;;;;;;;6253634;28;20064;-70
2022/06/09 00:25:02;;;;;;;10.35;6.80;;;;;;;;;;6254674;28;20056;-70
2022/06/09 00:28:04;;;;;;;9.20;7.22;;;;;;;;;;6251771;28;20236;-69
2022/06/09 00:31:05;;;;;;;9.55;6.45;;;;;;;;;;6253894;28;20053;-70
2022/06/09 00:34:09;;;;;;;10.27;7.15;;;;;;;;;;6252338;28;20048;-70
2022/06/09 00:37:11;;;;;;;13.13;7.85;;;;;;;;;;6253264;28;20041;-70
2022/06/09 00:40:14;;;;;;;10.18;7.57;;;;;;;;;;6254676;28;20268;-70
2022/06/09 00:43:16;;;;;;;12.65;7.18;;;;;;;;;;6248983;28;20061;-73
2022/06/09 00:46:20;;;;;;;11.25;8.18;;;;;;;;;;6254475;28;20284;-70
2022/06/09 00:49:27;;;;;;;11.98;8.02;;;;;;;;;;6257358;28;20049;-70
2022/06/09 00:52:32;;;;;;;13.10;7.85;;;;;;;;;;6250898;28;20057;-72
2022/06/09 00:55:34;;;;;;;11.25;8.02;;;;;;;;;;6253778;28;20049;-72
2022/06/09 00:58:38;;;;;;;14.60;8.55;;;;;;;;;;6254478;28;20048;-70
2022/06/09 01:01:39;;;;;;;;;;;;;;;;;;6251483;28;20057;-70
2022/06/09 01:04:43;;;;;;;10.00;7.68;;;;;;;;;;6252694;28;19917;-70
2022/06/09 01:07:47;;;;;;;10.18;7.68;;;;;;;;;;6254546;28;20081;-70
2022/06/09 01:10:49;;;;;;;10.15;8.30;;;;;;;;;;6251541;28;20057;-70
2022/06/09 01:13:51;;;;;;;12.05;9.88;;;;;;;;;;6250848;28;20329;-70
2022/06/09 01:17:02;;;;;;;14.63;9.98;;;;;;;;;;6251647;28;20054;-70
2022/06/09 01:20:12;;;;;;;13.93;8.57;;;;;;;;;;6246442;28;20127;-70
2022/06/09 01:23:47;;;;;;;9.00;7.45;;;;;;;;;;6252048;28;20336;-71
2022/06/09 01:27:13;;;;;;;9.10;6.60;;;;;;;;;;6252261;28;20056;-70
2022/06/09 01:30:17;;;;;;;10.98;6.15;;;;;;;;;;6254234;28;20052;-70
2022/06/09 01:33:26;;;;;;;7.65;5.85;;;;;;;;;;6252119;28;20053;-71
2022/06/09 01:36:32;;;;;;;8.20;6.55;;;;;;;;;;6253944;28;20060;-72
2022/06/09 01:39:45;;;;;;;7.47;5.40;;;;;;;;;;6249833;28;20065;-71
2022/06/09 01:42:48;;;;;;;9.15;5.53;;;;;;;;;;6247029;28;20050;-71
2022/06/09 01:45:55;;;;;;;7.65;5.20;;;;;;;;;;6250585;28;20057;-70
2022/06/09 01:49:01;;;;;;;8.15;5.28;;;;;;;;;;6251601;28;20053;-70
2022/06/09 01:52:04;;;;;;;7.88;5.75;;;;;;;;;;6251247;28;20045;-70
2022/06/09 01:55:08;;;;;;;8.18;5.90;;;;;;;;;;6253853;28;20047;-72
2022/06/09 01:58:11;;;;;;;8.82;5.43;;;;;;;;;;6251148;28;20053;-73
2022/06/09 02:01:14;;;;;;;8.43;5.45;;;;;;;;;;6253600;28;20045;-70
2022/06/09 02:04:32;;;;;;;7.07;5.38;;;;;;;;;;6249122;28;20222;-71
2022/06/09 02:07:36;;;;;;;7.55;5.10;;;;;;;;;;6251497;28;20093;-75
2022/06/09 02:10:39;;;;;;;7.13;5.07;;;;;;;;;;6252409;28;20220;-70
2022/06/09 02:13:43;;;;;;;6.75;4.47;;;;;;;;;;6248588;28;20042;-70
2022/06/09 02:16:45;;;;;;;5.53;3.65;;;;;;;;;;6249955;28;20052;-72
2022/06/09 02:19:49;;;;;;;5.32;3.80;;;;;;;;;;6251064;28;20046;-70
2022/06/09 02:22:50;;;;;;;;;;;;;;;;;;6245209;28;20061;-70
2022/06/09 02:25:52;;;;;;;4.75;3.13;;;;;;;;;;6253539;28;20191;-70
2022/06/09 02:28:54;;;;;;;5.70;3.58;;;;;;;;;;6251560;28;20058;-71
2022/06/09 02:31:56;;;;;;;4.85;3.72;;;;;;;;;;6252883;28;20112;-70
2022/06/09 02:34:59;;;;;;;5.10;3.70;;;;;;;;;;6253625;28;20053;-70
2022/06/09 02:38:01;;;;;;;5.05;3.42;;;;;;;;;;6253584;28;20104;-71
2022/06/09 02:41:03;;;;;;;5.82;3.50;;;;;;;;;;6247994;28;20060;-71
2022/06/09 02:44:05;;;;;;;6.13;3.65;;;;;;;;;;6249231;28;20324;-70
2022/06/09 02:47:07;;;;;;;6.97;3.80;;;;;;;;;;6251628;28;20045;-70
2022/06/09 02:50:11;;;;;;;9.43;3.75;;;;;;;;;;6253641;28;20045;-71
2022/06/09 02:53:12;;;;;;;;;;;;;;;;;;6254574;28;20053;-70
2022/06/09 02:56:14;;;;;;;6.93;3.40;;;;;;;;;;6249732;28;19925;-70
2022/06/09 02:59:16;;;;;;;4.90;3.63;;;;;;;;;;6251071;28;20046;-70
2022/06/09 03:02:17;;;;;;;6.93;4.05;;;;;;;;;;6252320;28;20054;-72
2022/06/09 03:05:21;;;;;;;5.45;4.10;;;;;;;;;;6250783;28;20093;-70
2022/06/09 03:08:22;;;;;;;;;;;;;;;;;;6248563;28;20088;-70
2022/06/09 03:11:24;;;;;;;7.55;5.05;;;;;;;;;;6253460;28;19924;-72
2022/06/09 03:14:26;;;;;;;8.13;4.90;;;;;;;;;;6252174;28;20099;-70
2022/06/09 03:17:28;;;;;;;7.95;4.88;;;;;;;;;;6249770;28;20080;-70
2022/06/09 03:20:33;;;;;;;11.52;5.00;;;;;;;;;;6252106;28;20095;-71
2022/06/09 03:23:35;;;;;;;8.10;5.10;;;;;;;;;;6251738;28;20069;-70
2022/06/09 03:26:37;;;;;;;5.00;4.28;;;;;;;;;;6248373;28;20057;-71
2022/06/09 03:29:39;;;;;;;6.97;4.90;;;;;;;;;;6247887;28;20050;-70
2022/06/09 03:32:40;;;;;;;7.32;5.30;;;;;;;;;;6250804;28;20076;-71
2022/06/09 03:35:43;;;;;;;7.93;5.07;;;;;;;;;;6248201;28;20050;-70
2022/06/09 03:38:45;;;;;;;5.60;4.60;;;;;;;;;;6248968;28;20038;-70
2022/06/09 03:41:47;;;;;;;6.20;4.72;;;;;;;;;;6248795;28;20049;-72
2022/06/09 03:44:49;;;;;;;5.65;4.55;;;;;;;;;;6249905;28;20057;-71
2022/06/09 03:47:50;;;;;;;6.97;4.70;;;;;;;;;;6250194;28;20099;-71
2022/06/09 03:50:54;;;;;;;6.28;4.50;;;;;;;;;;6249658;28;20053;-70
2022/06/09 03:53:55;;;;;;;8.10;4.68;;;;;;;;;;6250004;28;20056;-70
2022/06/09 03:56:57;;;;;;;8.00;5.13;;;;;;;;;;6247100;28;20516;-73
2022/06/09 03:59:59;;;;;;;7.50;5.13;;;;;;;;;;6248819;28;20329;-70
2022/06/09 04:03:00;;;;;;;8.05;5.75;;;;;;;;;;6252205;28;20336;-71
2022/06/09 04:06:03;;;;;;;6.80;5.03;;;;;;;;;;6246962;28;20045;-72
2022/06/09 04:09:05;;;;;;;9.57;6.15;;;;;;;;;;6247569;28;20065;-71
2022/06/09 04:12:07;;;;;;;6.45;5.15;;;;;;;;;;6248594;28;20064;-71
2022/06/09 04:15:10;;;;;;;8.18;6.10;;;;;;;;;;6245120;28;20091;-71
2022/06/09 04:18:12;;;;;;;8.75;5.57;;;;;;;;;;6248196;28;20218;-71
2022/06/09 04:21:16;;;;;;;7.93;5.72;;;;;;;;;;6250390;28;20060;-71
2022/06/09 04:24:18;;;;;;;9.93;6.63;;;;;;;;;;6249288;28;20066;-71
2022/06/09 04:27:20;;;;;;;11.77;7.75;;;;;;;;;;6252197;28;20311;-71
2022/06/09 04:30:22;;;;;;;9.63;6.90;;;;;;;;;;6250850;28;20245;-70
2022/06/09 04:33:24;;;;;;;11.15;6.20;;;;;;;;;;6254416;28;20057;-70
2022/06/09 04:36:27;;;;;;;11.70;8.07;;;;;;;;;;6252184;28;20045;-71
2022/06/09 04:39:29;;;;;;;9.73;7.47;;;;;;;;;;6249198;28;20064;-71
2022/06/09 04:42:30;;;;;;;12.80;8.48;;;;;;;;;;6251909;28;20072;-71
2022/06/09 04:45:32;;;;;;;12.35;8.73;;;;;;;;;;6251400;28;20096;-70
2022/06/09 04:48:36;;;;;;;11.95;8.60;;;;;;;;;;6250727;28;20056;-71
2022/06/09 04:51:39;;;;;;;12.35;8.70;;;;;;;;;;6249316;28;20058;-71
2022/06/09 04:54:41;;;;;;;12.15;8.73;;;;;;;;;;6256380;28;20344;-73
2022/06/09 04:57:42;;;;;;;11.30;8.30;;;;;;;;;;6254168;28;20049;-70
2022/06/09 05:00:44;;;;;;;12.45;8.70;;;;;;;;;;6253450;28;20336;-71
2022/06/09 05:03:46;;;;;;;13.27;9.35;;;;;;;;;;6252868;28;20057;-71
2022/06/09 05:06:49;;;;;;;13.00;9.13;;;;;;;;;;6251695;28;20202;-74
2022/06/09 05:09:51;;;;;;;13.60;10.02;;;;;;;;;;6253473;28;20096;-71
2022/06/09 05:12:53;;;;;;;14.65;10.48;;;;;;;;;;6251607;28;20052;-74
2022/06/09 05:15:56;;;;;;;12.75;10.63;;;;;;;;;;6251048;28;20057;-75
2022/06/09 05:18:58;;;;;;;12.43;10.82;;;;;;;;;;6254609;28;20323;-75
2022/06/09 05:22:01;;;;;;;13.63;11.27;;;;;;;;;;6252655;28;20052;-74
2022/06/09 05:25:03;;;;;;;14.05;10.35;;;;;;;;;;6252644;28;20045;-73
2022/06/09 05:28:05;;;;;;;15.00;10.40;;;;;;;;;;6255529;28;20106;-72
2022/06/09 05:31:07;;;;;;;14.75;9.38;;;;;;;;;;6250777;28;20049;-73
2022/06/09 05:34:10;;;;;;;13.73;9.80;;;;;;;;;;6253503;28;20095;-72
2022/06/09 05:37:22;;;;;;;;;;;;;;;;;;6250910;28;20054;-75
2022/06/09 05:47:02;;;;;;;11.93;7.85;;;;;;;;;;6252189;28;20037;-77
2022/06/09 05:50:05;;;;;;;8.52;7.22;;;;;;;;;;6253681;28;20064;-86
2022/06/09 05:53:08;;;;;;;214.55;16.38;;;;;;;;;;6250232;28;20095;-81
2022/06/09 05:56:10;;;;;;;7.35;4.40;;;;;;;;;;6250405;28;20056;-81
2022/06/09 05:59:11;;;;;;;6.43;4.32;;;;;;;;;;6252277;28;20105;-71
2022/06/09 06:02:15;;;;;;;5.88;4.45;;;;;;;;;;6250984;28;20337;-77
2022/06/09 06:08:33;;;;;;;6.15;4.72;;;;;;;;;;6251297;28;20053;-72
2022/06/09 06:11:36;;;;;;;7.35;4.95;;;;;;;;;;6251750;28;20060;-73
2022/06/09 06:14:38;;;;;;;5.97;4.07;;;;;;;;;;6251264;28;20276;-73
2022/06/09 06:17:39;;;;;;;7.10;4.00;;;;;;;;;;6251059;28;20060;-76
2022/06/09 06:20:41;;;;;;;5.40;3.70;;;;;;;;;;6248874;28;20076;-75
2022/06/09 06:23:45;;;;;;;5.10;3.20;;;;;;;;;;6256184;28;20099;-75
2022/06/09 06:26:47;;;;;;;5.13;3.75;;;;;;;;;;6249801;28;20144;-76
2022/06/09 06:29:49;;;;;;;5.43;3.15;;;;;;;;;;6249346;28;20060;-75
2022/06/09 06:32:51;;;;;;;4.00;3.05;;;;;;;;;;6250321;28;20042;-75
2022/06/09 06:35:52;;;;;;;6.90;3.33;;;;;;;;;;6254765;28;20046;-75
2022/06/09 06:38:55;;;;;;;5.15;4.15;;;;;;;;;;6249487;28;20076;-75
2022/06/09 06:41:57;;;;;;;4.80;3.88;;;;;;;;;;6244787;28;20081;-75
2022/06/09 06:44:59;;;;;;;6.20;4.03;;;;;;;;;;6249551;28;20053;-75
2022/06/09 06:48:01;;;;;;;6.40;3.83;;;;;;;;;;6250305;28;20057;-76
2022/06/09 06:51:02;;;;;;;6.10;4.30;;;;;;;;;;6250703;28;20095;-75
2022/06/09 06:54:06;;;;;;;6.15;4.32;;;;;;;;;;6253205;28;20053;-75
2022/06/09 06:57:09;;;;;;;7.65;4.72;;;;;;;;;;6248900;28;20060;-75
2022/06/09 07:00:15;;;;;;;9.77;4.90;;;;;;;;;;6248924;28;20105;-75
2022/06/09 07:03:16;;;;;;;6.30;4.57;;;;;;;;;;6249710;28;20084;-75
2022/06/09 07:06:19;;;;;;;6.75;4.72;;;;;;;;;;6251475;28;20057;-76
2022/06/09 07:09:22;;;;;;;7.10;4.90;;;;;;;;;;6248718;28;20066;-75
2022/06/09 07:12:23;;;;;;;5.95;4.65;;;;;;;;;;6253027;28;20069;-76
2022/06/09 07:15:25;;;;;;;6.47;4.82;;;;;;;;;;6249842;28;20244;-76
2022/06/09 07:18:27;;;;;;;7.40;5.00;;;;;;;;;;6244520;28;20065;-74
2022/06/09 07:21:28;;;;;;;6.10;4.97;;;;;;;;;;6251392;28;20056;-74
2022/06/09 07:24:31;;;;;;;7.68;5.28;;;;;;;;;;6249711;28;20581;-75
2022/06/09 07:27:33;;;;;;;5.85;4.32;;;;;;;;;;6250094;28;20049;-74
2022/06/09 07:30:35;;;;;;;5.60;4.38;;;;;;;;;;6250418;28;20091;-76
2022/06/09 07:33:38;;;;;;;6.47;4.00;;;;;;;;;;6248395;28;20276;-74
2022/06/09 07:36:41;;;;;;;5.47;4.55;;;;;;;;;;6252356;28;20050;-74
2022/06/09 07:39:44;;;;;;;8.07;4.75;;;;;;;;;;6248182;28;20280;-74
2022/06/09 07:42:46;;;;;;;6.78;5.05;;;;;;;;;;6249943;28;20107;-74
2022/06/09 07:45:48;;;;;;;5.03;3.50;;;;;;;;;;6252114;28;20060;-74
2022/06/09 07:48:51;;;;;;;4.35;3.53;;;;;;;;;;6248856;28;20050;-78
2022/06/09 07:51:53;;;;;;;7.70;3.20;;;;;;;;;;6251731;28;20057;-79
2022/06/09 07:54:56;;;;;;;6.22;3.20;;;;;;;;;;6244381;28;20464;-80
2022/06/09 07:57:57;;;;;;;3.80;3.10;;;;;;;;;;6247552;28;20182;-79
2022/06/09 08:00:59;;;;;;;6.80;3.78;;;;;;;;;;6248200;28;20037;-85
2022/06/09 08:04:01;;;;;;;4.75;2.95;;;;;;;;;;6256642;28;20069;-81
2022/06/09 08:07:03;;;;;;;5.85;2.60;;;;;;;;;;6250429;28;20056;-84
2022/06/09 08:10:07;;;;;;;6.03;2.72;;;;;;;;;;6250813;28;20069;-83
2022/06/09 08:13:09;;;;;;;3.75;2.60;;;;;;;;;;6249681;28;20042;-82
2022/06/09 08:16:11;;;;;;;3.72;2.50;;;;;;;;;;6256912;28;20060;-81
2022/06/09 08:19:13;;;;;;;4.63;2.85;;;;;;;;;;6248904;28;20041;-80
2022/06/09 08:22:15;;;;;;;5.00;3.40;;;;;;;;;;6252189;28;20053;-80
2022/06/09 08:25:21;;;;;;;3.95;3.45;;;;;;;;;;6248409;28;20241;-78
2022/06/09 08:28:23;;;;;;;4.68;3.35;;;;;;;;;;6246748;28;21147;-76
2022/06/09 08:31:25;;;;;;;5.27;3.83;;;;;;;;;;6249481;28;20229;-76
2022/06/09 08:34:28;;;;;;;7.80;3.65;;;;;;;;;;6245924;28;20091;-77
2022/06/09 08:37:30;;;;;;;11.32;4.30;;;;;;;;;;6246330;28;20132;-77
2022/06/09 08:40:37;;;;;;;6.68;3.30;;;;;;;;;;6248013;28;20060;-76
2022/06/09 08:43:47;;;;;;;3.88;3.13;;;;;;;;;;6248594;28;20045;-74
2022/06/09 08:46:53;;;;;;;5.72;3.30;;;;;;;;;;6245625;28;20082;-74
2022/06/09 08:50:01;;;;;;;6.78;3.30;;;;;;;;;;6248207;28;20068;-75
2022/06/09 08:53:08;;;;;;;13.88;2.15;;;;;;;;;;6253676;28;20356;-76
2022/06/09 08:56:17;;;;;;;4.63;1.80;;;;;;;;;;6255227;28;20072;-76
2022/06/09 08:59:22;;;;;;;3.22;1.67;;;;;;;;;;6253486;28;20258;-76
2022/06/09 09:02:31;;;;;;;6.78;2.20;;;;;;;;;;6251161;28;20246;-75
2022/06/09 09:05:38;;;;;;;4.75;2.40;;;;;;;;;;6250089;28;20077;-75
2022/06/09 09:08:39;;;;;;;6.97;2.35;;;;;;;;;;6254208;28;20072;-75
2022/06/09 09:11:52;;;;;;;4.53;2.45;;;;;;;;;;6251575;28;20059;-75
2022/06/09 09:14:56;;;;;;;3.15;2.00;;;;;;;;;;6253509;28;20237;-75
2022/06/09 09:18:08;;;;;;;1.88;1.45;;;;;;;;;;6250892;28;20644;-75
2022/06/09 09:21:27;;;;;;;5.00;1.70;;;;;;;;;;6251848;28;20104;-75
2022/06/09 09:24:34;;;;;;;2.20;1.30;;;;;;;;;;6252441;28;20241;-74
2022/06/09 09:27:43;;;;;;;3.40;1.45;;;;;;;;;;6251341;28;20053;-76
2022/06/09 09:30:54;;;;;;;0.82;0.70;;;;;;;;;;6247500;28;20057;-74
2022/06/09 09:33:56;;;;;;;2.67;0.60;;;;;;;;;;6248120;28;20281;-74
2022/06/09 09:37:00;;;;;;;;;;;;;;;;;;6247736;28;20049;-74
2022/06/09 09:40:02;;;;;;;;;;;;;;;;;;6247621;28;20262;-73
2022/06/09 09:43:09;;;;;;;0.98;0.50;;;;;;;;;;6247391;28;19939;-75
2022/06/09 09:46:22;;;;;;;1.55;0.50;;;;;;;;;;6251066;28;20139;-73
2022/06/09 09:49:27;;;;;;;4.32;0.40;;;;;;;;;;6247790;28;20061;-74
2022/06/09 09:52:40;;;;;;;2.35;0.52;;;;;;;;;;6245659;28;20120;-74
2022/06/09 09:55:51;;;;;;;0.40;0.30;;;;;;;;;;6256014;28;20058;-74
2022/06/09 09:58:58;;;;;;;1.95;0.38;;;;;;;;;;6248795;28;20077;-74
2022/06/09 10:09:20;;;;;;;1.42;0.52;;;;;;;;;;6197998;28;20042;-76
2022/06/09 10:12:27;;;;;;;0.40;0.40;;;;;;;;;;6195457;28;20330;-75
2022/06/09 10:15:30;;;;;;;1.25;0.50;;;;;;;;;;6196893;28;20337;-75
2022/06/09 10:18:32;;;;;;;6.07;0.70;;;;;;;;;;6194742;28;20092;-76
2022/06/09 10:21:50;;;;;;;0.77;0.30;;;;;;;;;;6195807;28;20050;-76
2022/06/09 10:24:55;;;;;;;0.47;0.30;;;;;;;;;;6189105;28;20054;-76
2022/06/09 10:28:02;;;;;;;1.60;0.40;;;;;;;;;;6191264;28;20058;-76
2022/06/09 10:31:08;;;;;;;1.48;0.50;;;;;;;;;;6193605;28;20046;-77
2022/06/09 10:34:24;;;;;;;3.28;0.57;;;;;;;;;;6198515;28;20465;-78
2022/06/09 10:37:32;;;;;;;0.65;0.40;;;;;;;;;;6192680;28;20078;-78
2022/06/09 10:40:39;;;;;;;0.60;0.40;;;;;;;;;;6191930;28;20054;-77
2022/06/09 10:43:46;;;;;;;2.55;0.60;;;;;;;;;;6199073;28;20253;-77
2022/06/09 10:57:11;;;;;;;1.60;0.52;;;;;;;;;;6242677;28;20045;-78
2022/06/09 11:00:17;;;;;;;2.40;0.60;;;;;;;;;;6243151;28;20355;-76
2022/06/09 11:03:22;;;;;;;1.75;0.40;;;;;;;;;;6245694;28;20046;-76
2022/06/09 11:06:39;;;;;;;1.45;0.50;;;;;;;;;;6247454;28;20057;-78
2022/06/09 11:09:52;;;;;;;1.92;0.40;;;;;;;;;;6247385;28;20053;-77
2022/06/09 11:13:05;;;;;;;4.22;0.60;;;;;;;;;;6245819;28;20065;-77
2022/06/09 11:16:13;;;;;;;2.38;0.73;;;;;;;;;;6246720;28;20053;-77
2022/06/09 11:19:30;;;;;;;0.70;0.40;;;;;;;;;;6248381;28;20041;-77
2022/06/09 11:22:40;;;;;;;0.70;0.43;;;;;;;;;;6246499;28;20057;-76
2022/06/09 11:25:51;;;;;;;0.73;0.50;;;;;;;;;;6245674;28;20099;-78
2022/06/09 11:28:59;;;;;;;1.02;0.50;;;;;;;;;;6246758;28;20276;-76
2022/06/09 11:32:09;;;;;;;1.52;0.40;;;;;;;;;;6246998;28;20128;-78
2022/06/09 11:35:24;;;;;;;3.45;1.02;;;;;;;;;;6247145;28;20048;-80
2022/06/09 11:38:38;;;;;;;0.40;0.20;;;;;;;;;;6254745;28;20055;-80
2022/06/09 11:41:43;;;;;;;2.58;0.38;;;;;;;;;;6249799;28;20057;-75
2022/06/09 11:44:48;;;;;;;3.25;0.40;;;;;;;;;;6254775;28;20044;-77
2022/06/09 11:47:51;;;;;;;2.78;0.40;;;;;;;;;;6250997;28;20057;-76
2022/06/09 11:50:54;;;;;;;0.30;0.30;;;;;;;;;;6258141;28;20115;-71
2022/06/09 11:54:01;;;;;;;0.30;0.30;;;;;;;;;;6254298;28;20057;-76
2022/06/09 11:57:22;;;;;;;7.30;0.50;;;;;;;;;;6255028;28;20052;-76
2022/06/09 12:00:41;;;;;;;2.78;0.68;;;;;;;;;;6258400;28;20069;-77
2022/06/09 12:04:00;;;;;;;1.63;0.50;;;;;;;;;;6256952;28;20099;-77
2022/06/09 12:07:19;;;;;;;4.18;0.60;;;;;;;;;;6253286;28;20079;-75
2022/06/09 12:10:35;;;;;;;1.50;0.52;;;;;;;;;;6246670;28;20112;-76
2022/06/09 12:13:47;;;;;;;1.25;0.30;;;;;;;;;;6248198;28;20147;-76
2022/06/09 12:16:58;;;;;;;0.70;0.40;;;;;;;;;;6247263;28;20049;-76
2022/06/09 12:20:04;;;;;;;0.90;0.45;;;;;;;;;;6248314;28;20068;-75
2022/06/09 12:23:26;;;;;;;0.35;0.35;;;;;;;;;;6249246;28;20061;-76
2022/06/09 12:26:56;;;;;;;;;;;;;;;;;;6248280;28;20112;-75
2022/06/09 12:30:24;;;;;;;1.52;0.30;;;;;;;;;;6195621;28;19984;-77
2022/06/09 12:33:31;;;;;;;6.45;0.47;;;;;;;;;;6189313;28;20050;-75
2022/06/09 12:36:38;;;;;;;0.32;0.30;;;;;;;;;;6192629;28;20050;-75
2022/06/09 12:39:47;;;;;;;0.70;0.60;;;;;;;;;;6194193;28;20073;-73
2022/06/09 12:42:51;;;;;;;0.40;0.30;;;;;;;;;;6194132;28;20050;-76
2022/06/09 12:46:15;;;;;;;2.47;0.50;;;;;;;;;;6193522;28;20104;-73
2022/06/09 12:49:17;;;;;;;1.58;0.40;;;;;;;;;;6194554;28;20222;-71
2022/06/09 12:52:23;;;;;;;0.65;0.30;;;;;;;;;;6196021;28;20082;-73
2022/06/09 12:55:28;;;;;;;1.08;0.52;;;;;;;;;;6194015;28;20377;-72
2022/06/09 12:58:35;;;;;;;1.85;0.60;;;;;;;;;;6195913;28;20206;-68
2022/06/09 13:01:37;;;;;;;0.30;0.30;;;;;;;;;;6193899;28;20076;-72
2022/06/09 13:04:45;;;;;;;2.00;0.50;;;;;;;;;;6206902;28;20053;-75
2022/06/09 13:07:52;;;;;;;1.88;0.40;;;;;;;;;;6245762;28;20154;-73
2022/06/09 13:10:59;;;;;;;1.75;0.40;;;;;;;;;;6245557;28;20049;-73
2022/06/09 13:14:03;;;;;;;0.82;0.50;;;;;;;;;;6246179;28;20116;-73
2022/06/09 13:17:07;;;;;;;0.57;0.50;;;;;;;;;;6244609;28;20057;-72
2022/06/09 13:20:15;;;;;;;0.88;0.50;;;;;;;;;;6248139;28;20055;-72
2022/06/09 13:23:17;;;;;;;0.40;0.40;;;;;;;;;;6248390;28;20309;-73
2022/06/09 13:26:23;;;;;;;1.83;0.50;;;;;;;;;;6251418;28;20056;-73
2022/06/09 13:29:27;;;;;;;0.70;0.40;;;;;;;;;;6254227;28;20069;-72
2022/06/09 13:32:38;;;;;;;0.60;0.57;;;;;;;;;;6254857;28;20061;-73
2022/06/09 13:35:41;;;;;;;1.43;0.60;;;;;;;;;;6250462;28;20050;-73
2022/06/09 13:38:43;;;;;;;2.17;0.50;;;;;;;;;;6247805;28;20288;-74
2022/06/09 13:41:45;;;;;;;;;;;;;;;;;;6249220;28;20046;-71
2022/06/09 13:45:08;;;;;;;3.40;0.60;;;;;;;;;;6252137;28;19936;-71
2022/06/09 13:48:16;;;;;;;2.05;0.47;;;;;;;;;;6252697;28;20260;-71
2022/06/09 13:51:25;;;;;;;1.73;0.52;;;;;;;;;;6252621;28;20053;-73
2022/06/09 13:54:30;;;;;;;1.50;0.60;;;;;;;;;;6254163;28;20053;-71
2022/06/09 13:57:36;;;;;;;3.97;0.65;;;;;;;;;;6248891;28;20037;-72
2022/06/09 14:00:42;;;;;;;1.95;0.50;;;;;;;;;;6249580;28;20054;-72
2022/06/09 14:03:46;;;;;;;2.72;0.50;;;;;;;;;;6249903;28;20052;-73
2022/06/09 14:06:49;;;;;;;1.45;0.70;;;;;;;;;;6249568;28;20060;-73
2022/06/09 14:09:51;;;;;;;2.10;0.80;;;;;;;;;;6249411;28;20343;-72
2022/06/09 14:12:55;;;;;;;0.65;0.50;;;;;;;;;;6251737;28;20103;-73
2022/06/09 14:15:56;;;;;;;4.30;1.20;;;;;;;;;;6251834;28;20111;-72
2022/06/09 14:18:58;;;;;;;3.38;0.73;;;;;;;;;;6249492;28;20185;-73
2022/06/09 14:21:59;;;;;;;5.40;0.60;;;;;;;;;;6249316;28;20104;-74
2022/06/09 14:25:01;;;;;;;0.95;0.38;;;;;;;;;;6251896;28;20368;-73
2022/06/09 14:28:07;;;;;;;0.98;0.50;;;;;;;;;;6247477;28;20229;-72
2022/06/09 14:31:10;;;;;;;3.78;0.77;;;;;;;;;;6250275;28;20077;-74
2022/06/09 14:34:12;;;;;;;1.17;0.52;;;;;;;;;;6250090;28;20053;-72
2022/06/09 14:37:15;;;;;;;3.75;0.60;;;;;;;;;;6247354;28;20173;-74
2022/06/09 14:40:22;;;;;;;4.95;0.50;;;;;;;;;;6246650;28;20363;-73
2022/06/09 14:43:25;;;;;;;3.42;0.70;;;;;;;;;;6247926;28;20065;-75
2022/06/09 14:46:31;;;;;;;1.33;0.93;;;;;;;;;;6250599;28;21752;-73
2022/06/09 14:49:32;;;;;;;7.65;0.60;;;;;;;;;;6251615;28;20052;-72
2022/06/09 14:52:34;;;;;;;8.73;0.60;;;;;;;;;;6252616;28;20054;-75
2022/06/09 14:55:38;;;;;;;7.90;1.35;;;;;;;;;;6247032;28;20059;-75
2022/06/09 14:58:41;;;;;;;4.55;1.00;;;;;;;;;;6250642;28;20262;-74
2022/06/09 15:01:43;;;;;;;3.40;1.00;;;;;;;;;;6250402;28;20056;-75
2022/06/09 15:04:44;;;;;;;2.20;0.83;;;;;;;;;;6243215;28;20057;-74
2022/06/09 15:07:48;;;;;;;5.70;1.10;;;;;;;;;;6247319;28;20049;-75
2022/06/09 15:10:51;;;;;;;0.80;0.60;;;;;;;;;;6247616;28;20060;-74
2022/06/09 15:13:55;;;;;;;3.88;0.90;;;;;;;;;;6246619;28;20052;-74
2022/06/09 15:16:57;;;;;;;2.08;0.80;;;;;;;;;;6246309;28;20158;-74
2022/06/09 15:19:58;;;;;;;4.70;0.95;;;;;;;;;;6248270;28;20079;-74
2022/06/09 15:23:00;;;;;;;5.10;1.52;;;;;;;;;;6244528;28;20057;-75
2022/06/09 15:26:03;;;;;;;4.32;1.00;;;;;;;;;;6244972;28;20064;-75
2022/06/09 15:29:06;;;;;;;3.95;1.02;;;;;;;;;;6247160;28;20061;-74
2022/06/09 15:32:08;;;;;;;2.03;0.77;;;;;;;;;;6243088;28;20310;-74
2022/06/09 15:35:12;;;;;;;6.90;1.20;;;;;;;;;;6245930;28;20108;-75
2022/06/09 15:38:13;;;;;;;4.68;0.70;;;;;;;;;;6247078;28;20045;-74
2022/06/09 15:41:15;;;;;;;1.45;0.90;;;;;;;;;;6246663;28;20058;-78
2022/06/09 15:44:18;;;;;;;3.45;1.17;;;;;;;;;;6245576;28;20041;-78
2022/06/09 15:47:20;;;;;;;1.58;0.75;;;;;;;;;;6248776;28;20347;-78
2022/06/09 15:50:24;;;;;;;1.30;0.60;;;;;;;;;;6249252;28;20095;-78
2022/06/09 15:53:26;;;;;;;3.55;0.90;;;;;;;;;;6249415;28;20050;-78
2022/06/09 15:56:28;;;;;;;3.80;0.70;;;;;;;;;;6248282;28;20053;-78
2022/06/09 15:59:31;;;;;;;1.45;0.70;;;;;;;;;;6251504;28;20045;-78
2022/06/09 16:02:32;;;;;;;3.58;1.00;;;;;;;;;;6249516;28;20057;-80
2022/06/09 16:05:35;;;;;;;4.35;1.10;;;;;;;;;;6248728;28;20059;-77
2022/06/09 16:08:36;;;;;;;3.38;1.40;;;;;;;;;;6247087;28;20115;-77
2022/06/09 16:11:38;;;;;;;2.40;0.98;;;;;;;;;;6249814;28;20045;-77
2022/06/09 16:14:43;;;;;;;1.65;0.80;;;;;;;;;;6246832;28;20107;-77
2022/06/09 16:17:45;;;;;;;1.83;0.82;;;;;;;;;;6247913;28;20058;-78
2022/06/09 16:20:48;;;;;;;3.50;0.60;;;;;;;;;;6247137;28;20049;-77
2022/06/09 16:23:50;;;;;;;2.13;0.70;;;;;;;;;;6253248;28;20045;-78
2022/06/09 16:26:51;;;;;;;0.90;0.73;;;;;;;;;;6253716;28;20045;-78
2022/06/09 16:29:54;;;;;;;4.50;0.80;;;;;;;;;;6252249;28;20336;-77
2022/06/09 16:32:56;;;;;;;;;;;;;;;;;;6255021;28;20053;-76
2022/06/09 16:35:58;;;;;;;3.95;1.20;;;;;;;;;;6251601;28;19948;-76
2022/06/09 16:38:59;;;;;;;3.13;1.10;;;;;;;;;;6251668;28;20053;-76
2022/06/09 16:42:01;;;;;;;2.45;0.80;;;;;;;;;;6248963;28;20049;-76
2022/06/09 16:45:06;;;;;;;1.67;0.70;;;;;;;;;;6252089;28;20057;-75
2022/06/09 16:48:09;;;;;;;4.78;1.13;;;;;;;;;;6250508;28;20068;-79
2022/06/09 16:51:10;;;;;;;2.55;0.90;;;;;;;;;;6251145;28;20049;-80
2022/06/09 16:54:12;;;;;;;6.05;1.13;;;;;;;;;;6255076;28;20462;-79
2022/06/09 16:57:14;;;;;;;3.33;0.70;;;;;;;;;;6253075;28;20053;-79
2022/06/09 17:00:23;;;;;;;4.30;0.80;;;;;;;;;;6254039;28;20059;-79
2022/06/09 17:03:24;;;;;;;1.92;0.73;;;;;;;;;;6252275;28;20053;-79
2022/06/09 17:06:26;;;;;;;1.50;0.85;;;;;;;;;;6253868;28;20058;-79
2022/06/09 17:09:29;;;;;;;10.23;1.20;;;;;;;;;;6256813;28;20280;-79
2022/06/09 17:12:31;;;;;;;;;;;;;;;;;;6253564;28;20045;-78
2022/06/09 17:15:35;;;;;;;1.88;1.10;;;;;;;;;;6252155;28;19963;-78
2022/06/09 17:18:37;;;;;;;3.33;1.40;;;;;;;;;;6248574;28;20284;-78
2022/06/09 17:21:43;;;;;;;4.53;0.90;;;;;;;;;;6250994;28;20367;-79
2022/06/09 17:24:44;;;;;;;6.72;0.80;;;;;;;;;;6251884;28;20345;-77
2022/06/09 17:27:46;;;;;;;6.72;0.80;;;;;;;;;;6251655;28;20160;-78
2022/06/09 17:30:50;;;;;;;9.52;1.00;;;;;;;;;;6249055;28;20045;-79
2022/06/09 17:33:52;;;;;;;4.38;1.05;;;;;;;;;;6250851;28;20046;-78
2022/06/09 17:36:53;;;;;;;3.50;0.75;;;;;;;;;;6250109;28;20048;-79
2022/06/09 17:39:55;;;;;;;18.38;1.50;;;;;;;;;;6247587;28;20352;-79
2022/06/09 17:42:57;;;;;;;1.60;0.70;;;;;;;;;;6245913;28;20049;-79
2022/06/09 17:46:00;;;;;;;2.15;0.40;;;;;;;;;;6251485;28;20064;-80
2022/06/09 17:49:02;;;;;;;2.05;0.68;;;;;;;;;;6250723;28;20049;-79
2022/06/09 17:52:05;;;;;;;13.73;1.37;;;;;;;;;;6251585;28;20095;-79
2022/06/09 17:55:08;;;;;;;3.42;0.70;;;;;;;;;;6252701;28;20050;-76
2022/06/09 17:58:11;;;;;;;8.40;0.90;;;;;;;;;;6250274;28;20059;-75
2022/06/09 18:01:14;;;;;;;;;;;;;;;;;;6251743;28;20052;-74
2022/06/09 18:04:16;;;;;;;3.72;1.10;;;;;;;;;;6248905;28;19975;-74
2022/06/09 18:07:19;;;;;;;6.38;1.30;;;;;;;;;;6249092;28;20100;-73
2022/06/09 18:10:27;;;;;;;3.50;0.73;;;;;;;;;;6252495;28;20050;-74
2022/06/09 18:13:29;;;;;;;11.27;1.10;;;;;;;;;;6252652;28;20056;-74
2022/06/09 18:16:32;;;;;;;7.55;1.05;;;;;;;;;;6245985;28;20627;-75
2022/06/09 18:19:34;;;;;;;5.13;1.00;;;;;;;;;;6249796;28;20049;-76
2022/06/09 18:22:36;;;;;;;3.53;1.05;;;;;;;;;;6249300;28;20103;-73
2022/06/09 18:25:40;;;;;;;4.35;0.55;;;;;;;;;;6249700;28;20057;-77
2022/06/09 18:28:42;;;;;;;2.55;0.70;;;;;;;;;;6245584;28;20053;-76
2022/06/09 18:31:45;;;;;;;4.30;0.73;;;;;;;;;;6249038;28;20058;-74
2022/06/09 18:34:46;;;;;;;2.15;0.80;;;;;;;;;;6248862;28;20045;-75
2022/06/09 18:37:48;;;;;;;4.50;0.50;;;;;;;;;;6249651;28;20103;-76
2022/06/09 18:40:51;;;;;;;1.13;0.38;;;;;;;;;;6250220;28;20049;-75
2022/06/09 18:43:53;;;;;;;;;;;;;;;;;;6248021;28;20057;-75
2022/06/09 18:46:56;;;;;;;6.63;0.80;;;;;;;;;;6246972;28;19988;-74
2022/06/09 18:49:57;;;;;;;4.10;0.80;;;;;;;;;;6252260;28;20103;-76
2022/06/09 18:52:59;;;;;;;0.60;0.43;;;;;;;;;;6249723;28;20088;-77
2022/06/09 18:56:01;;;;;;;0.65;0.45;;;;;;;;;;6250179;28;20693;-78